createdAt,value
2018-02-24T00:02:01.099Z,36.47
2018-02-24T00:04:29.513Z,37.47
2018-02-24T00:06:57.919Z,37.40
2018-02-24T00:09:26.246Z,36.75
2018-02-24T00:11:54.598Z,36.45
2018-02-24T00:14:23.011Z,38.92
2018-02-24T00:16:51.360Z,37.53
2018-02-24T00:19:19.682Z,37.17
2018-02-24T00:21:48.035Z,37.30
2018-02-24T00:24:16.364Z,37.92
2018-02-24T00:26:44.770Z,36.92
2018-02-24T00:29:13.175Z,39.10
2018-02-24T00:31:41.598Z,35.67
2018-02-24T00:34:09.918Z,36.72
2018-02-24T00:36:38.261Z,37.65
2018-02-24T00:39:06.588Z,36.75
2018-02-24T00:41:34.942Z,36.53
2018-02-24T00:44:03.288Z,36.55
2018-02-24T00:46:31.636Z,37.03
2018-02-24T00:48:59.974Z,36.75
2018-02-24T00:51:28.394Z,36.17
2018-02-24T00:53:56.801Z,35.95
2018-02-24T00:56:25.186Z,36.80
2018-02-24T00:58:53.504Z,37.25
2018-02-24T01:01:21.935Z,37.67
2018-02-24T01:03:50.247Z,37.10
2018-02-24T01:06:18.607Z,37.63
2018-02-24T01:08:47.043Z,37.27
2018-02-24T01:11:15.411Z,38.40
2018-02-24T01:13:43.754Z,37.22
2018-02-24T01:16:12.105Z,38.30
2018-02-24T01:18:40.443Z,39.58
2018-02-24T01:21:08.815Z,38.35
2018-02-24T01:23:37.118Z,36.33
2018-02-24T01:26:05.474Z,36.40
2018-02-24T01:28:33.822Z,36.92
2018-02-24T01:31:02.190Z,36.67
2018-02-24T01:33:30.518Z,35.83
2018-02-24T01:35:58.975Z,36.72
2018-02-24T01:38:27.295Z,36.05
2018-02-24T01:40:55.630Z,34.65
2018-02-24T01:43:23.976Z,37.38
2018-02-24T01:45:52.399Z,37.70
2018-02-24T01:48:20.726Z,35.77
2018-02-24T01:50:49.096Z,35.90
2018-02-24T01:53:17.423Z,36.10
2018-02-24T01:55:45.822Z,37.33
2018-02-24T01:58:14.161Z,38.22
2018-02-24T02:00:42.779Z,37.53
2018-02-24T02:03:11.103Z,37.75
2018-02-24T02:05:39.458Z,37.53
2018-02-24T02:08:07.783Z,38.38
2018-02-24T02:10:36.138Z,38.33
2018-02-24T02:13:04.459Z,39.08
2018-02-24T02:15:32.834Z,38.17
2018-02-24T02:18:01.256Z,39.73
2018-02-24T02:20:29.698Z,38.63
2018-02-24T02:22:58.023Z,38.20
2018-02-24T02:25:26.383Z,38.30
2018-02-24T02:27:54.730Z,38.95
2018-02-24T02:30:23.123Z,38.20
2018-02-24T02:32:51.507Z,39.35
2018-02-24T02:35:19.853Z,37.60
2018-02-24T02:37:48.175Z,38.80
2018-02-24T02:40:16.560Z,39.63
2018-02-24T02:42:44.940Z,36.13
2018-02-24T02:45:13.391Z,37.75
2018-02-24T02:47:41.718Z,37.43
2018-02-24T02:50:10.130Z,39.13
2018-02-24T02:52:38.467Z,38.58
2018-02-24T02:55:07.034Z,37.60
2018-02-24T02:57:35.412Z,38.25
2018-02-24T03:00:03.743Z,37.78
2018-02-24T03:02:32.095Z,37.35
2018-02-24T03:05:00.507Z,40.33
2018-02-24T03:07:28.859Z,40.00
2018-02-24T03:09:57.272Z,40.70
2018-02-24T03:12:25.595Z,40.20
2018-02-24T03:14:53.967Z,41.90
2018-02-24T03:17:22.338Z,39.78
2018-02-24T03:19:50.716Z,40.58
2018-02-24T03:24:53.726Z,39.50
2018-02-24T03:27:22.096Z,39.95
2018-02-24T03:29:50.408Z,39.67
2018-02-24T03:32:18.763Z,37.93
2018-02-24T03:34:47.103Z,38.00
2018-02-24T03:37:15.550Z,41.27
2018-02-24T03:39:43.878Z,40.05
2018-02-24T03:42:12.234Z,39.40
2018-02-24T03:44:40.582Z,38.22
2018-02-24T03:47:09.027Z,38.75
2018-02-24T03:49:37.401Z,40.00
2018-02-24T03:52:05.726Z,39.80
2018-02-24T03:54:34.075Z,39.23
2018-02-24T03:57:02.406Z,40.37
2018-02-24T03:59:30.779Z,39.03
2018-02-24T04:01:59.156Z,38.37
2018-02-24T04:04:27.489Z,38.70
2018-02-24T04:06:55.827Z,39.40
2018-02-24T04:09:24.225Z,40.53
2018-02-24T04:11:52.607Z,40.72
2018-02-24T04:14:20.915Z,39.75
2018-02-24T04:16:49.296Z,39.63
2018-02-24T04:19:17.695Z,40.72
2018-02-24T04:21:46.047Z,39.33
2018-02-24T04:24:14.382Z,39.77
2018-02-24T04:26:42.732Z,40.57
2018-02-24T04:29:11.082Z,39.87
2018-02-24T04:31:39.528Z,38.55
2018-02-24T04:34:07.905Z,39.35
2018-02-24T04:36:36.258Z,40.35
2018-02-24T04:39:04.588Z,40.50
2018-02-24T04:41:32.951Z,40.88
2018-02-24T04:44:01.287Z,40.92
2018-02-24T04:46:29.638Z,40.72
2018-02-24T04:48:57.971Z,41.75
2018-02-24T04:51:26.310Z,40.27
2018-02-24T04:53:54.695Z,40.87
2018-02-24T04:56:23.039Z,40.47
2018-02-24T04:58:51.394Z,40.07
2018-02-24T05:01:19.730Z,40.78
2018-02-24T05:03:48.094Z,39.38
2018-02-24T05:06:16.454Z,39.33
2018-02-24T05:08:44.794Z,40.47
2018-02-24T05:11:13.143Z,40.50
2018-02-24T05:13:41.481Z,39.95
2018-02-24T05:16:09.888Z,40.50
2018-02-24T05:18:38.525Z,39.35
2018-02-24T05:21:06.892Z,39.13
2018-02-24T05:23:35.237Z,38.88
2018-02-24T05:26:03.584Z,38.50
2018-02-24T05:28:31.921Z,38.88
2018-02-24T05:31:00.383Z,37.15
2018-02-24T05:33:28.747Z,38.33
2018-02-24T05:35:57.098Z,37.97
2018-02-24T05:38:25.542Z,39.95
2018-02-24T05:40:53.881Z,38.47
2018-02-24T05:43:22.214Z,37.90
2018-02-24T05:45:50.634Z,39.73
2018-02-24T05:48:19.017Z,39.53
2018-02-24T05:50:47.402Z,38.00
2018-02-24T05:53:15.785Z,38.95
2018-02-24T05:55:44.189Z,37.33
2018-02-24T05:58:12.569Z,37.97
2018-02-24T06:00:40.905Z,37.80
2018-02-24T06:03:09.237Z,38.38
2018-02-24T06:05:37.660Z,37.17
2018-02-24T06:08:05.997Z,39.83
2018-02-24T06:10:34.326Z,37.67
2018-02-24T06:13:02.659Z,39.00
2018-02-24T06:15:31.002Z,37.70
2018-02-24T06:17:59.338Z,37.45
2018-02-24T06:20:27.776Z,37.38
2018-02-24T06:22:56.153Z,38.92
2018-02-24T06:25:24.503Z,38.38
2018-02-24T06:27:52.838Z,37.85
2018-02-24T06:30:21.195Z,35.88
2018-02-24T06:32:49.620Z,38.17
2018-02-24T06:35:17.974Z,36.13
2018-02-24T06:37:46.295Z,38.00
2018-02-24T06:40:14.639Z,36.13
2018-02-24T06:42:42.977Z,35.30
2018-02-24T06:45:11.351Z,35.43
2018-02-24T06:47:39.699Z,37.30
2018-02-24T06:50:08.039Z,37.75
2018-02-24T06:52:36.364Z,35.30
2018-02-24T06:55:04.722Z,37.25
2018-02-24T06:57:33.046Z,37.15
2018-02-24T07:00:01.402Z,36.33
2018-02-24T07:02:29.854Z,36.85
2018-02-24T07:04:58.190Z,37.08
2018-02-24T07:07:26.562Z,37.28
2018-02-24T07:09:54.914Z,37.22
2018-02-24T07:12:23.226Z,36.45
2018-02-24T07:14:51.644Z,37.10
2018-02-24T07:17:19.985Z,37.53
2018-02-24T07:19:48.318Z,36.90
2018-02-24T07:22:16.652Z,38.03
2018-02-24T07:24:45.016Z,35.20
2018-02-24T07:27:13.437Z,35.60
2018-02-24T07:29:42.592Z,37.05
2018-02-24T07:32:10.955Z,36.53
2018-02-24T07:34:39.307Z,34.97
2018-02-24T07:37:07.659Z,34.17
2018-02-24T07:39:36.013Z,35.00
2018-02-24T07:42:04.366Z,34.53
2018-02-24T07:44:32.709Z,33.50
2018-02-24T07:47:01.070Z,33.85
2018-02-24T07:49:29.462Z,34.53
2018-02-24T07:51:57.806Z,35.43
2018-02-24T07:54:26.139Z,34.57
2018-02-24T07:56:54.747Z,33.83
2018-02-24T07:59:23.183Z,32.55
2018-02-24T08:01:51.594Z,32.58
2018-02-24T08:04:19.919Z,27.50
2018-02-24T08:06:48.348Z,27.33
2018-02-24T08:09:16.668Z,32.30
2018-02-24T08:11:45.020Z,32.10
2018-02-24T08:14:13.355Z,32.70
2018-02-24T08:16:41.711Z,33.03
2018-02-24T08:19:10.047Z,32.72
2018-02-24T08:21:38.415Z,31.02
2018-02-24T08:24:06.773Z,31.12
2018-02-24T08:26:35.162Z,30.73
2018-02-24T08:29:03.520Z,31.48
2018-02-24T08:31:31.876Z,32.30
2018-02-24T08:34:00.207Z,32.33
2018-02-24T08:36:28.562Z,31.62
2018-02-24T08:38:56.961Z,31.20
2018-02-24T08:41:25.342Z,30.27
2018-02-24T08:43:53.717Z,30.73
2018-02-24T08:46:22.031Z,31.70
2018-02-24T08:48:50.382Z,29.60
2018-02-24T08:51:18.715Z,31.48
2018-02-24T08:53:47.067Z,30.12
2018-02-24T08:56:15.391Z,29.80
2018-02-24T08:58:43.855Z,31.65
2018-02-24T09:01:12.224Z,29.45
2018-02-24T09:03:40.578Z,30.80
2018-02-24T09:06:08.904Z,30.55
2018-02-24T09:08:37.265Z,28.85
2018-02-24T09:11:05.662Z,31.47
2018-02-24T09:13:34.010Z,31.23
2018-02-24T09:16:02.397Z,29.52
2018-02-24T09:18:30.783Z,29.30
2018-02-24T09:20:59.119Z,31.30
2018-02-24T09:23:27.467Z,29.52
2018-02-24T09:25:55.945Z,29.08
2018-02-24T09:28:24.312Z,28.90
2018-02-24T09:30:52.635Z,28.07
2018-02-24T09:33:20.983Z,29.60
2018-02-24T09:35:49.362Z,29.08
2018-02-24T09:38:17.726Z,29.12
2018-02-24T09:40:46.188Z,28.30
2018-02-24T09:43:14.586Z,28.55
2018-02-24T09:45:42.907Z,26.40
2018-02-24T09:48:11.326Z,27.60
2018-02-24T09:50:39.644Z,25.07
2018-02-24T09:53:08.082Z,26.80
2018-02-24T09:55:36.488Z,25.73
2018-02-24T09:58:04.841Z,25.92
2018-02-24T10:00:33.188Z,25.08
2018-02-24T10:03:01.561Z,25.52
2018-02-24T10:05:29.966Z,24.90
2018-02-24T10:07:58.318Z,25.75
2018-02-24T10:10:26.659Z,23.83
2018-02-24T10:12:55.022Z,23.77
2018-02-24T10:15:23.327Z,25.45
2018-02-24T10:17:51.675Z,24.37
2018-02-24T10:20:20.052Z,24.60
2018-02-24T10:22:48.430Z,23.30
2018-02-24T10:25:16.755Z,25.27
2018-02-24T10:27:45.166Z,22.95
2018-02-24T10:30:13.542Z,23.75
2018-02-24T10:32:41.959Z,23.80
2018-02-24T10:35:10.258Z,23.13
2018-02-24T10:37:38.600Z,24.37
2018-02-24T10:40:06.955Z,23.40
2018-02-24T10:42:35.308Z,23.52
2018-02-24T10:45:03.666Z,22.87
2018-02-24T10:47:32.868Z,21.35
2018-02-24T10:50:01.202Z,22.42
2018-02-24T10:52:29.547Z,21.67
2018-02-24T10:54:57.883Z,22.25
2018-02-24T10:57:26.247Z,22.50
2018-02-24T10:59:54.631Z,22.60
2018-02-24T11:02:22.960Z,21.65
2018-02-24T11:04:51.387Z,21.73
2018-02-24T11:07:19.709Z,20.07
2018-02-24T11:09:48.029Z,21.67
2018-02-24T11:12:16.378Z,22.07
2018-02-24T11:14:44.698Z,20.62
2018-02-24T11:17:13.030Z,19.42
2018-02-24T11:19:41.452Z,21.30
2018-02-24T11:22:09.784Z,19.65
2018-02-24T11:24:38.135Z,19.70
2018-02-24T11:27:06.463Z,20.17
2018-02-24T11:29:34.800Z,20.50
2018-02-24T11:32:03.199Z,20.48
2018-02-24T11:34:31.635Z,20.50
2018-02-24T11:36:59.945Z,20.30
2018-02-24T11:39:33.964Z,20.77
2018-02-24T11:42:02.283Z,19.83
2018-02-24T11:44:30.635Z,20.15
2018-02-24T11:46:59.044Z,20.05
2018-02-24T11:49:27.395Z,19.70
2018-02-24T11:51:55.799Z,19.23
2018-02-24T11:54:24.176Z,20.37
2018-02-24T11:56:52.546Z,20.35
2018-02-24T11:59:20.896Z,18.95
2018-02-24T12:01:49.226Z,18.42
2018-02-24T12:04:17.569Z,17.77
2018-02-24T12:06:45.898Z,19.48
2018-02-24T12:09:14.244Z,18.33
2018-02-24T12:11:42.640Z,18.70
2018-02-24T12:14:11.006Z,17.90
2018-02-24T12:19:14.110Z,18.50
2018-02-24T12:21:42.415Z,18.75
2018-02-24T12:24:10.754Z,18.65
2018-02-24T12:26:39.136Z,18.30
2018-02-24T12:29:07.470Z,17.60
2018-02-24T12:31:35.800Z,17.10
2018-02-24T12:34:04.119Z,18.70
2018-02-24T12:36:32.455Z,18.05
2018-02-24T12:39:00.804Z,17.75
2018-02-24T12:41:29.141Z,16.80
2018-02-24T12:43:57.463Z,16.37
2018-02-24T12:46:25.787Z,17.02
2018-02-24T12:48:54.131Z,17.23
2018-02-24T12:51:22.451Z,17.60
2018-02-24T12:53:50.805Z,16.75
2018-02-24T12:56:19.118Z,16.70
2018-02-24T12:58:47.465Z,17.70
2018-02-24T13:01:15.786Z,17.62
2018-02-24T13:03:44.138Z,17.77
2018-02-24T13:06:12.466Z,18.33
2018-02-24T13:08:40.807Z,17.23
2018-02-24T13:11:09.166Z,17.77
2018-02-24T13:13:37.524Z,17.50
2018-02-24T13:16:05.847Z,19.33
2018-02-24T13:18:34.245Z,19.40
2018-02-24T13:21:02.572Z,19.20
2018-02-24T13:23:30.896Z,18.77
2018-02-24T13:25:59.226Z,20.02
2018-02-24T13:28:27.779Z,18.90
2018-02-24T13:30:56.158Z,19.50
2018-02-24T13:33:24.483Z,18.73
2018-02-24T13:35:53.825Z,20.10
2018-02-24T13:38:22.136Z,18.50
2018-02-24T13:40:50.485Z,20.35
2018-02-24T13:43:18.968Z,18.60
2018-02-24T13:45:47.313Z,19.25
2018-02-24T13:48:15.705Z,18.95
2018-02-24T13:50:44.000Z,20.75
2018-02-24T13:53:12.306Z,20.23
2018-02-24T13:55:40.666Z,18.45
2018-02-24T13:58:09.002Z,19.08
2018-02-24T14:00:37.338Z,19.63
2018-02-24T14:03:05.715Z,18.87
2018-02-24T14:05:34.030Z,18.42
2018-02-24T14:08:02.368Z,19.48
2018-02-24T14:10:30.700Z,19.50
2018-02-24T14:12:59.099Z,18.90
2018-02-24T14:15:27.447Z,18.95
2018-02-24T14:17:55.776Z,18.85
2018-02-24T14:20:24.132Z,18.73
2018-02-24T14:22:52.453Z,19.17
2018-02-24T14:25:20.855Z,19.35
2018-02-24T14:27:49.171Z,20.60
2018-02-24T14:30:17.523Z,19.20
2018-02-24T14:32:45.855Z,18.80
2018-02-24T14:35:14.198Z,19.67
2018-02-24T14:37:42.524Z,18.17
2018-02-24T14:40:10.878Z,19.67
2018-02-24T14:42:39.295Z,19.08
2018-02-24T14:45:07.646Z,18.83
2018-02-24T14:47:35.973Z,18.17
2018-02-24T14:50:04.320Z,19.50
2018-02-24T14:52:32.658Z,19.58
2018-02-24T14:55:01.001Z,17.80
2018-02-24T14:57:29.327Z,18.92
2018-02-24T14:59:57.672Z,18.98
2018-02-24T15:02:25.998Z,19.87
2018-02-24T15:04:54.346Z,19.27
2018-02-24T15:07:22.663Z,18.77
2018-02-24T15:09:51.085Z,19.08
2018-02-24T15:12:19.403Z,19.48
2018-02-24T15:14:47.732Z,18.60
2018-02-24T15:17:16.063Z,19.50
2018-02-24T15:19:44.409Z,19.10
2018-02-24T15:22:12.745Z,19.70
2018-02-24T15:24:41.082Z,19.83
2018-02-24T15:27:09.440Z,19.65
2018-02-24T15:29:38.419Z,19.83
2018-02-24T15:32:06.796Z,21.20
2018-02-24T15:34:35.120Z,20.55
2018-02-24T15:37:03.475Z,19.60
2018-02-24T15:39:31.879Z,20.80
2018-02-24T15:42:00.283Z,20.52
2018-02-24T15:44:28.663Z,20.30
2018-02-24T15:46:57.065Z,19.67
2018-02-24T15:49:25.386Z,18.70
2018-02-24T15:51:53.819Z,16.47
2018-02-24T15:54:22.119Z,16.53
2018-02-24T15:56:50.455Z,15.43
2018-02-24T15:59:18.854Z,16.53
2018-02-24T16:01:47.294Z,16.10
2018-02-24T16:04:15.685Z,14.63
2018-02-24T16:06:44.068Z,14.93
2018-02-24T16:09:12.427Z,16.00
2018-02-24T16:11:40.734Z,16.23
2018-02-24T16:14:09.123Z,16.27
2018-02-24T16:16:37.432Z,14.37
2018-02-24T16:19:06.034Z,14.50
2018-02-24T16:21:34.379Z,15.07
2018-02-24T16:24:02.739Z,13.73
2018-02-24T16:26:31.036Z,14.07
2018-02-24T16:28:59.384Z,15.03
2018-02-24T16:31:27.687Z,15.90
2018-02-24T16:33:56.103Z,13.30
2018-02-24T16:36:24.528Z,14.97
2018-02-24T16:38:52.855Z,12.70
2018-02-24T16:41:21.354Z,13.37
2018-02-24T16:43:49.695Z,15.63
2018-02-24T16:46:18.042Z,15.35
2018-02-24T16:48:46.376Z,12.50
2018-02-24T16:51:14.693Z,15.37
2018-02-24T16:53:43.146Z,14.77
2018-02-24T16:56:11.464Z,15.50
2018-02-24T16:58:39.792Z,15.75
2018-02-24T17:01:08.217Z,15.57
2018-02-24T17:03:36.552Z,15.55
2018-02-24T17:06:04.879Z,15.57
2018-02-24T17:08:33.301Z,14.90
2018-02-24T17:11:01.689Z,15.50
2018-02-24T17:13:30.064Z,15.50
2018-02-24T17:15:58.439Z,14.80
2018-02-24T17:18:26.785Z,15.10
2018-02-24T17:20:55.209Z,15.60
2018-02-24T17:23:23.615Z,14.85
2018-02-24T17:25:51.930Z,14.50
2018-02-24T17:28:20.270Z,14.30
2018-02-24T17:30:48.616Z,14.60
2018-02-24T17:33:16.958Z,14.35
2018-02-24T17:35:45.297Z,15.40
2018-02-24T17:38:13.649Z,14.63
2018-02-24T17:40:42.072Z,16.65
2018-02-24T17:43:10.418Z,15.85
2018-02-24T17:45:38.735Z,16.55
2018-02-24T17:48:07.119Z,16.52
2018-02-24T17:50:35.469Z,16.17
2018-02-24T17:53:03.849Z,15.00
2018-02-24T17:55:32.185Z,13.00
2018-02-24T17:58:00.526Z,15.10
2018-02-24T18:00:29.017Z,15.97
2018-02-24T18:02:57.370Z,14.73
2018-02-24T18:05:25.738Z,15.27
2018-02-24T18:07:54.088Z,14.40
2018-02-24T18:10:22.420Z,14.50
2018-02-24T18:12:50.787Z,17.30
2018-02-24T18:15:19.115Z,14.90
2018-02-24T18:20:15.207Z,17.60
2018-02-24T18:22:43.546Z,18.27
2018-02-24T18:25:11.883Z,18.97
2018-02-24T18:27:40.221Z,20.17
2018-02-24T18:30:08.539Z,20.00
2018-02-24T18:32:36.939Z,20.00
2018-02-24T18:35:05.283Z,19.85
2018-02-24T18:37:33.633Z,21.87
2018-02-24T18:40:01.968Z,21.10
2018-02-24T18:42:30.354Z,20.27
2018-02-24T18:44:58.698Z,20.10
2018-02-24T18:47:27.034Z,19.60
2018-02-24T18:49:55.361Z,20.88
2018-02-24T18:52:23.753Z,20.27
2018-02-24T18:54:52.072Z,19.30
2018-02-24T18:57:20.456Z,19.70
2018-02-24T18:59:48.837Z,20.77
2018-02-24T19:02:17.188Z,19.30
2018-02-24T19:04:45.527Z,20.65
2018-02-24T19:07:13.934Z,19.48
2018-02-24T19:09:42.259Z,20.10
2018-02-24T19:12:10.607Z,19.08
2018-02-24T19:14:38.927Z,19.30
2018-02-24T19:17:07.274Z,20.10
2018-02-24T19:19:35.659Z,19.80
2018-02-24T19:22:03.990Z,19.75
2018-02-24T19:24:32.382Z,19.17
2018-02-24T19:27:00.733Z,18.67
2018-02-24T19:29:29.082Z,19.17
2018-02-24T19:31:57.448Z,18.73
2018-02-24T19:34:25.799Z,19.25
2018-02-24T19:36:54.127Z,18.98
2018-02-24T19:39:22.469Z,18.67
2018-02-24T19:41:50.855Z,17.30
2018-02-24T19:44:19.341Z,19.25
2018-02-24T19:46:47.660Z,16.57
2018-02-24T19:49:15.999Z,17.10
2018-02-24T19:51:44.376Z,14.80
2018-02-24T19:54:12.814Z,13.70
2018-02-24T19:56:41.141Z,13.27
2018-02-24T19:59:09.488Z,14.40
2018-02-24T20:01:37.810Z,13.80
2018-02-24T20:04:06.162Z,13.43
2018-02-24T20:06:34.536Z,12.63
2018-02-24T20:09:02.870Z,14.20
2018-02-24T20:11:31.254Z,12.30
2018-02-24T20:13:59.683Z,13.30
2018-02-24T20:16:28.014Z,11.87
2018-02-24T20:18:56.342Z,12.30
2018-02-24T20:21:24.695Z,11.63
2018-02-24T20:23:53.086Z,11.57
2018-02-24T20:26:21.565Z,11.77
2018-02-24T20:28:49.885Z,11.83
2018-02-24T20:31:18.232Z,13.40
2018-02-24T20:33:46.671Z,13.80
2018-02-24T20:36:15.023Z,11.80
2018-02-24T20:38:43.341Z,11.33
2018-02-24T20:41:11.787Z,10.30
2018-02-24T20:43:40.138Z,11.33
2018-02-24T20:46:08.479Z,11.53
2018-02-24T20:48:36.818Z,11.43
2018-02-24T20:51:05.247Z,10.83
2018-02-24T20:53:33.582Z,12.37
2018-02-24T20:56:01.918Z,10.90
2018-02-24T20:58:30.251Z,11.10
2018-02-24T21:00:58.590Z,11.67
2018-02-24T21:03:26.915Z,10.73
2018-02-24T21:05:55.276Z,11.70
2018-02-24T21:08:23.599Z,10.80
2018-02-24T21:10:51.965Z,11.40
2018-02-24T21:13:20.339Z,12.13
2018-02-24T21:15:48.685Z,11.30
2018-02-24T21:18:17.067Z,11.20
2018-02-24T21:20:45.478Z,10.43
2018-02-24T21:23:13.818Z,10.20
2018-02-24T21:25:42.157Z,10.30
2018-02-24T21:28:10.499Z,10.30
2018-02-24T21:30:38.848Z,9.10
2018-02-24T21:33:07.286Z,8.50
2018-02-24T21:35:35.646Z,9.97
2018-02-24T21:38:04.003Z,9.60
2018-02-24T21:40:32.384Z,8.57
2018-02-24T21:43:00.709Z,9.97
2018-02-24T21:45:29.046Z,7.10
2018-02-24T21:47:57.404Z,8.20
2018-02-24T21:50:25.755Z,8.30
2018-02-24T21:52:54.064Z,9.00
2018-02-24T21:55:22.394Z,6.93
2018-02-24T21:57:50.722Z,9.30
2018-02-24T22:00:19.091Z,8.20
2018-02-24T22:02:47.463Z,8.03
2018-02-24T22:05:15.783Z,8.20
2018-02-24T22:07:44.100Z,7.67
2018-02-24T22:10:12.488Z,8.47
2018-02-24T22:12:40.864Z,8.00
2018-02-24T22:15:09.242Z,9.10
2018-02-24T22:17:37.626Z,8.60
2018-02-24T22:20:06.048Z,9.00
2018-02-24T22:22:34.352Z,7.90
2018-02-24T22:25:02.806Z,7.10
2018-02-24T22:27:31.138Z,6.70
2018-02-24T22:29:59.559Z,6.93
2018-02-24T22:32:27.896Z,8.07
2018-02-24T22:34:56.273Z,7.07
2018-02-24T22:37:24.659Z,6.17
2018-02-24T22:39:53.031Z,5.53
2018-02-24T22:42:21.454Z,5.80
2018-02-24T22:44:49.830Z,7.07
2018-02-24T22:47:18.173Z,5.20
2018-02-24T22:49:46.589Z,5.90
2018-02-24T22:52:15.038Z,5.90
2018-02-24T22:54:43.358Z,6.90
2018-02-24T22:57:11.686Z,5.90
2018-02-24T22:59:40.054Z,5.67
2018-02-24T23:02:08.362Z,6.83
2018-02-24T23:04:36.755Z,5.97
2018-02-24T23:07:05.138Z,5.30
2018-02-24T23:09:33.463Z,4.60
2018-02-24T23:12:01.791Z,6.80
2018-02-24T23:14:30.135Z,5.07
2018-02-24T23:16:58.447Z,5.97
2018-02-24T23:19:26.797Z,5.20
2018-02-24T23:21:55.124Z,6.70
2018-02-24T23:24:23.508Z,5.67
2018-02-24T23:26:51.853Z,5.77
2018-02-24T23:29:20.235Z,5.67
2018-02-24T23:31:48.574Z,5.77
2018-02-24T23:34:16.894Z,6.17
2018-02-24T23:36:45.231Z,5.97
2018-02-24T23:39:13.548Z,5.33
2018-02-24T23:41:41.920Z,6.30
2018-02-24T23:44:10.248Z,6.70
2018-02-24T23:46:38.556Z,6.20
2018-02-24T23:49:07.025Z,6.47
2018-02-24T23:51:35.337Z,6.20
2018-02-24T23:54:03.763Z,7.40
2018-02-24T23:56:32.159Z,6.50
2018-02-24T23:59:00.529Z,6.10
